Twin Brooks, South Dakota
Current Conditions -  °F | °C
As of 12:33 PM on Wednesday 26 Nov 2014 (Local Time) from KVVV Reporting Station
Haze Haze  
Wind Chill: -21°   Ceiling: 1100
Heat Index: -12°   Visibility: 2.5mi
Dew Point: -16°   Wind: 16mph
Humidity: 73%   Direction: 340°NNW
Pressure: 30.3"   Gusts: 26mph
Location:  45.21°N, 96.78°W
Report Text: KVVV 261833Z AUTO 34014G23KT 2 1/2SM HZ OVC011 M12/M16 A3030 RMK AO2 VIS 1 1/2V5
Loading
Personal Weather Stations






























Interactive Weather Map New forecast layout! Learn more

10-Day Weather Forecast

Advertisements
Track Severe Weather on mobile